TimeAKDT,TemperatureF,Dew PointF,Humidity,Sea Level PressureIn,VisibilityMPH,Wind Direction,Wind SpeedMPH,Gust SpeedMPH,PrecipitationIn,Events,Conditions,WindDirDegrees,DateUTC
12:53 AM,52.0,42.1,69,30.01,10.0,Calm,Calm,-,N/A,,Clear,0,2013-06-13 08:53:00
1:53 AM,48.0,42.1,80,30.02,10.0,SW,3.5,-,N/A,,Clear,230,2013-06-13 09:53:00
2:53 AM,46.9,41.0,80,30.03,10.0,West,5.8,-,N/A,,Clear,260,2013-06-13 10:53:00
3:53 AM,45.0,41.0,86,30.04,10.0,SW,3.5,-,N/A,,Clear,230,2013-06-13 11:53:00
4:53 AM,44.1,41.0,89,30.04,10.0,Calm,Calm,-,N/A,,Clear,0,2013-06-13 12:53:00
5:53 AM,44.1,42.1,93,30.04,10.0,West,4.6,-,N/A,,Clear,280,2013-06-13 13:53:00
6:53 AM,48.0,44.1,86,30.05,10.0,Calm,Calm,-,N/A,,Clear,0,2013-06-13 14:53:00
7:53 AM,50.0,44.1,80,30.05,10.0,Calm,Calm,-,N/A,,Clear,0,2013-06-13 15:53:00
8:53 AM,54.0,44.1,69,30.06,10.0,South,3.5,-,N/A,,Clear,190,2013-06-13 16:53:00
9:53 AM,57.9,44.1,60,30.06,10.0,South,5.8,-,N/A,,Clear,170,2013-06-13 17:53:00
10:53 AM,61.0,44.1,54,30.06,10.0,South,4.6,-,N/A,,Clear,170,2013-06-13 18:53:00
11:53 AM,64.9,42.1,43,30.07,10.0,Variable,5.8,-,N/A,,Clear,0,2013-06-13 19:53:00
12:53 PM,66.9,41.0,39,30.07,10.0,South,5.8,-,N/A,,Clear,170,2013-06-13 20:53:00
1:53 PM,70.0,41.0,35,30.07,10.0,SSE,9.2,-,N/A,,Clear,160,2013-06-13 21:53:00
2:53 PM,71.1,39.9,32,30.07,10.0,South,8.1,-,N/A,,Clear,170,2013-06-13 22:53:00
3:53 PM,73.0,39.9,30,30.07,10.0,SSE,8.1,-,N/A,,Clear,160,2013-06-13 23:53:00
4:53 PM,73.9,39.0,28,30.08,10.0,SSE,8.1,-,N/A,,Clear,160,2013-06-14 00:53:00
5:53 PM,73.9,37.9,27,30.09,10.0,SSE,8.1,-,N/A,,Clear,160,2013-06-14 01:53:00
6:53 PM,72.0,39.9,31,30.10,10.0,SSE,11.5,-,N/A,,Clear,160,2013-06-14 02:53:00
7:53 PM,64.0,45.0,50,30.12,10.0,SSE,11.5,-,N/A,,Clear,160,2013-06-14 03:53:00
8:53 PM,55.9,45.0,67,30.14,10.0,South,9.2,-,N/A,,Clear,170,2013-06-14 04:53:00
9:53 PM,52.0,45.0,77,30.16,10.0,SSE,13.8,20.7,N/A,,Clear,160,2013-06-14 05:53:00
10:53 PM,48.9,45.0,86,30.19,10.0,Variable,3.5,-,N/A,,Clear,0,2013-06-14 06:53:00
11:53 PM,46.9,43.0,86,30.22,10.0,WSW,4.6,-,N/A,,Clear,250,2013-06-14 07:53:00